map of FDST home
FDST - Airport
Location
City:  Siteki, Lubombo, Swaziland
Name:Siteki Airfield
ICAO:FDST

Details
Type:Airport (Aerodrome, Airfield)
Latitude:2628'18"S (-26.471666)
Longitude:3156'33"E (31.942500)
Elevation:2220 ft (677 m)
Variation:20.91W (WMM2015 magnetic declination)
-0.12 annual change
Runways:1
Longest:2789 ft (850 m)

Time
Time Zone:UTC+2
Local Time:

Weather
METAR:FDST 180500Z AUTO 00000KT //// // ////// 19/16 Q1021

Related Locations
Nearby:
Farthest:HNM: 11803 mi / 18995 km
Hana, Maui, HI, US

Find:

   beyond  
but within

Other Information
Maps:
NOTAMs:
Links:
Sources:

  
  • flag of Swaziland
  

Sectional Chart

Flight Planning
at skyvector.com

Satellite Image

Google Maps Satellite view

 

Copyright © 2004-2018 Karl L. Swartz. All rights reserved.
The Great Circle Mapper name and logo are trademarks of the Great Circle Mapper.
All other trademarks mentioned herein belong to their respective owners.
Please see credits for attibutions and further copyright information.

  Follow gcmap on Facebook Follow gcmap on Twitter Follow gcmap on Google+ GCmap on LinkedIn

hCard Microformat

Geo Microformat